sensor_id;sensor_type;location;lat;lon;timestamp;P1;durP1;ratioP1;P2;durP2;ratioP2
66327;SDS011;53133;52.862;6.602;2022-08-18T00:02:05;16.83;;;9.52;;
66327;SDS011;53133;52.862;6.602;2022-08-18T00:04:39;13.52;;;8.75;;
66327;SDS011;53133;52.862;6.602;2022-08-18T00:07:06;14.90;;;8.77;;
66327;SDS011;53133;52.862;6.602;2022-08-18T00:09:34;15.65;;;8.57;;
66327;SDS011;53133;52.862;6.602;2022-08-18T00:12:03;15.27;;;7.68;;
66327;SDS011;53133;52.862;6.602;2022-08-18T00:14:32;12.30;;;8.18;;
66327;SDS011;53133;52.862;6.602;2022-08-18T00:16:57;15.57;;;8.25;;
66327;SDS011;53133;52.862;6.602;2022-08-18T00:19:23;10.63;;;8.68;;
66327;SDS011;53133;52.862;6.602;2022-08-18T00:21:49;16.92;;;8.30;;
66327;SDS011;53133;52.862;6.602;2022-08-18T00:24:15;10.73;;;7.63;;
66327;SDS011;53133;52.862;6.602;2022-08-18T00:26:40;19.52;;;8.63;;
66327;SDS011;53133;52.862;6.602;2022-08-18T00:29:06;13.45;;;7.63;;
66327;SDS011;53133;52.862;6.602;2022-08-18T00:31:32;13.65;;;8.15;;
66327;SDS011;53133;52.862;6.602;2022-08-18T00:33:58;13.35;;;8.18;;
66327;SDS011;53133;52.862;6.602;2022-08-18T00:36:24;14.82;;;7.88;;
66327;SDS011;53133;52.862;6.602;2022-08-18T00:38:50;13.32;;;8.63;;
66327;SDS011;53133;52.862;6.602;2022-08-18T00:41:16;10.85;;;7.60;;
66327;SDS011;53133;52.862;6.602;2022-08-18T00:43:44;14.95;;;8.45;;
66327;SDS011;53133;52.862;6.602;2022-08-18T00:46:21;15.77;;;8.38;;
66327;SDS011;53133;52.862;6.602;2022-08-18T00:48:49;11.65;;;7.90;;
66327;SDS011;53133;52.862;6.602;2022-08-18T00:51:18;12.55;;;7.72;;
66327;SDS011;53133;52.862;6.602;2022-08-18T00:53:55;16.27;;;7.97;;
66327;SDS011;53133;52.862;6.602;2022-08-18T00:56:25;14.32;;;7.88;;
66327;SDS011;53133;52.862;6.602;2022-08-18T00:58:57;10.30;;;7.47;;
66327;SDS011;53133;52.862;6.602;2022-08-18T01:01:31;15.13;;;7.40;;
66327;SDS011;53133;52.862;6.602;2022-08-18T01:04:13;11.52;;;6.78;;
66327;SDS011;53133;52.862;6.602;2022-08-18T01:06:45;15.40;;;7.43;;
66327;SDS011;53133;52.862;6.602;2022-08-18T01:09:16;9.60;;;7.00;;
66327;SDS011;53133;52.862;6.602;2022-08-18T01:11:42;13.80;;;7.35;;
66327;SDS011;53133;52.862;6.602;2022-08-18T01:14:08;12.27;;;6.80;;
66327;SDS011;53133;52.862;6.602;2022-08-18T01:19:24;11.35;;;7.03;;
66327;SDS011;53133;52.862;6.602;2022-08-18T01:22:13;12.20;;;7.20;;
66327;SDS011;53133;52.862;6.602;2022-08-18T01:24:43;13.02;;;7.60;;
66327;SDS011;53133;52.862;6.602;2022-08-18T01:27:27;11.27;;;7.60;;
66327;SDS011;53133;52.862;6.602;2022-08-18T01:29:56;14.38;;;7.60;;
66327;SDS011;53133;52.862;6.602;2022-08-18T01:32:26;15.37;;;8.10;;
66327;SDS011;53133;52.862;6.602;2022-08-18T01:34:52;15.38;;;8.57;;
66327;SDS011;53133;52.862;6.602;2022-08-18T01:37:21;14.50;;;7.47;;
66327;SDS011;53133;52.862;6.602;2022-08-18T01:39:48;13.48;;;8.20;;
66327;SDS011;53133;52.862;6.602;2022-08-18T01:42:14;15.38;;;9.38;;
66327;SDS011;53133;52.862;6.602;2022-08-18T01:44:42;15.10;;;8.43;;
66327;SDS011;53133;52.862;6.602;2022-08-18T01:47:09;19.13;;;9.02;;
66327;SDS011;53133;52.862;6.602;2022-08-18T01:49:36;15.77;;;9.00;;
66327;SDS011;53133;52.862;6.602;2022-08-18T01:52:04;13.23;;;8.40;;
66327;SDS011;53133;52.862;6.602;2022-08-18T01:54:31;13.48;;;8.38;;
66327;SDS011;53133;52.862;6.602;2022-08-18T01:56:57;10.85;;;8.75;;
66327;SDS011;53133;52.862;6.602;2022-08-18T01:59:23;15.18;;;9.10;;
66327;SDS011;53133;52.862;6.602;2022-08-18T02:01:49;13.82;;;9.18;;
66327;SDS011;53133;52.862;6.602;2022-08-18T02:04:18;16.02;;;9.48;;
66327;SDS011;53133;52.862;6.602;2022-08-18T02:06:48;13.05;;;9.50;;
66327;SDS011;53133;52.862;6.602;2022-08-18T02:09:14;15.90;;;9.07;;
66327;SDS011;53133;52.862;6.602;2022-08-18T02:11:39;15.40;;;9.93;;
66327;SDS011;53133;52.862;6.602;2022-08-18T02:14:05;15.40;;;10.15;;
66327;SDS011;53133;52.862;6.602;2022-08-18T02:16:30;13.75;;;9.55;;
66327;SDS011;53133;52.862;6.602;2022-08-18T02:18:57;16.05;;;10.02;;
66327;SDS011;53133;52.862;6.602;2022-08-18T02:21:22;13.50;;;9.23;;
66327;SDS011;53133;52.862;6.602;2022-08-18T02:23:48;18.45;;;10.35;;
66327;SDS011;53133;52.862;6.602;2022-08-18T02:26:15;19.20;;;10.13;;
66327;SDS011;53133;52.862;6.602;2022-08-18T02:28:41;13.80;;;9.60;;
66327;SDS011;53133;52.862;6.602;2022-08-18T02:31:09;16.88;;;10.70;;
66327;SDS011;53133;52.862;6.602;2022-08-18T02:33:36;13.02;;;10.02;;
66327;SDS011;53133;52.862;6.602;2022-08-18T02:36:02;14.73;;;10.70;;
66327;SDS011;53133;52.862;6.602;2022-08-18T02:38:28;20.00;;;12.93;;
66327;SDS011;53133;52.862;6.602;2022-08-18T02:40:58;15.00;;;11.93;;
66327;SDS011;53133;52.862;6.602;2022-08-18T02:43:25;19.75;;;13.93;;
66327;SDS011;53133;52.862;6.602;2022-08-18T02:45:52;20.48;;;13.70;;
66327;SDS011;53133;52.862;6.602;2022-08-18T02:48:19;20.13;;;14.60;;
66327;SDS011;53133;52.862;6.602;2022-08-18T02:50:59;21.95;;;13.88;;
66327;SDS011;53133;52.862;6.602;2022-08-18T02:53:26;20.85;;;13.75;;
66327;SDS011;53133;52.862;6.602;2022-08-18T02:55:52;23.63;;;14.70;;
66327;SDS011;53133;52.862;6.602;2022-08-18T02:58:19;21.98;;;13.77;;
66327;SDS011;53133;52.862;6.602;2022-08-18T03:00:44;21.05;;;14.25;;
66327;SDS011;53133;52.862;6.602;2022-08-18T03:03:10;22.38;;;14.85;;
66327;SDS011;53133;52.862;6.602;2022-08-18T03:05:37;25.90;;;14.88;;
66327;SDS011;53133;52.862;6.602;2022-08-18T03:08:03;23.05;;;14.98;;
66327;SDS011;53133;52.862;6.602;2022-08-18T03:10:29;21.13;;;13.98;;
66327;SDS011;53133;52.862;6.602;2022-08-18T03:12:54;21.65;;;14.20;;
66327;SDS011;53133;52.862;6.602;2022-08-18T03:15:20;21.35;;;14.45;;
66327;SDS011;53133;52.862;6.602;2022-08-18T03:17:46;23.05;;;14.73;;
66327;SDS011;53133;52.862;6.602;2022-08-18T03:20:11;25.40;;;14.52;;
66327;SDS011;53133;52.862;6.602;2022-08-18T03:22:37;21.73;;;13.88;;
66327;SDS011;53133;52.862;6.602;2022-08-18T03:25:03;23.00;;;13.77;;
66327;SDS011;53133;52.862;6.602;2022-08-18T03:27:29;20.73;;;13.05;;
66327;SDS011;53133;52.862;6.602;2022-08-18T03:29:54;21.17;;;13.02;;
66327;SDS011;53133;52.862;6.602;2022-08-18T03:32:21;27.33;;;13.50;;
66327;SDS011;53133;52.862;6.602;2022-08-18T03:34:46;24.33;;;13.02;;
66327;SDS011;53133;52.862;6.602;2022-08-18T03:37:12;21.27;;;12.73;;
66327;SDS011;53133;52.862;6.602;2022-08-18T03:39:40;19.90;;;11.95;;
66327;SDS011;53133;52.862;6.602;2022-08-18T03:42:05;21.05;;;12.80;;
66327;SDS011;53133;52.862;6.602;2022-08-18T03:44:32;20.23;;;11.95;;
66327;SDS011;53133;52.862;6.602;2022-08-18T03:47:03;19.40;;;11.93;;
66327;SDS011;53133;52.862;6.602;2022-08-18T03:49:33;21.17;;;12.02;;
66327;SDS011;53133;52.862;6.602;2022-08-18T03:51:59;18.95;;;12.05;;
66327;SDS011;53133;52.862;6.602;2022-08-18T03:54:25;26.15;;;12.15;;
66327;SDS011;53133;52.862;6.602;2022-08-18T03:56:51;20.45;;;11.10;;
66327;SDS011;53133;52.862;6.602;2022-08-18T03:59:20;22.38;;;11.57;;
66327;SDS011;53133;52.862;6.602;2022-08-18T04:01:47;19.95;;;10.98;;
66327;SDS011;53133;52.862;6.602;2022-08-18T04:04:16;20.38;;;11.23;;
66327;SDS011;53133;52.862;6.602;2022-08-18T04:06:54;20.95;;;11.30;;
66327;SDS011;53133;52.862;6.602;2022-08-18T04:09:26;35.72;;;11.20;;
66327;SDS011;53133;52.862;6.602;2022-08-18T04:11:53;16.23;;;10.98;;
66327;SDS011;53133;52.862;6.602;2022-08-18T04:14:20;21.30;;;11.60;;
66327;SDS011;53133;52.862;6.602;2022-08-18T04:16:54;19.55;;;10.88;;
66327;SDS011;53133;52.862;6.602;2022-08-18T04:19:21;19.88;;;11.68;;
66327;SDS011;53133;52.862;6.602;2022-08-18T04:21:49;19.25;;;10.82;;
66327;SDS011;53133;52.862;6.602;2022-08-18T04:24:16;21.63;;;11.48;;
66327;SDS011;53133;52.862;6.602;2022-08-18T04:26:43;24.48;;;12.23;;
66327;SDS011;53133;52.862;6.602;2022-08-18T04:29:12;23.33;;;11.85;;
66327;SDS011;53133;52.862;6.602;2022-08-18T04:31:38;20.08;;;12.25;;
66327;SDS011;53133;52.862;6.602;2022-08-18T04:34:04;23.70;;;12.27;;
66327;SDS011;53133;52.862;6.602;2022-08-18T04:36:31;21.50;;;12.05;;
66327;SDS011;53133;52.862;6.602;2022-08-18T04:39:01;24.58;;;12.70;;
66327;SDS011;53133;52.862;6.602;2022-08-18T04:41:28;24.60;;;13.30;;
66327;SDS011;53133;52.862;6.602;2022-08-18T04:43:58;16.10;;;12.40;;
66327;SDS011;53133;52.862;6.602;2022-08-18T04:46:25;21.40;;;12.65;;
66327;SDS011;53133;52.862;6.602;2022-08-18T04:48:52;23.10;;;13.00;;
66327;SDS011;53133;52.862;6.602;2022-08-18T04:51:23;22.52;;;12.55;;
66327;SDS011;53133;52.862;6.602;2022-08-18T04:53:50;19.85;;;13.00;;
66327;SDS011;53133;52.862;6.602;2022-08-18T04:56:18;18.15;;;11.93;;
66327;SDS011;53133;52.862;6.602;2022-08-18T04:58:56;26.27;;;12.02;;
66327;SDS011;53133;52.862;6.602;2022-08-18T05:01:27;20.40;;;11.95;;
66327;SDS011;53133;52.862;6.602;2022-08-18T05:03:56;19.33;;;12.57;;
66327;SDS011;53133;52.862;6.602;2022-08-18T05:06:23;18.02;;;12.07;;
66327;SDS011;53133;52.862;6.602;2022-08-18T05:08:52;21.85;;;12.18;;
66327;SDS011;53133;52.862;6.602;2022-08-18T05:11:19;20.88;;;12.05;;
66327;SDS011;53133;52.862;6.602;2022-08-18T05:13:46;20.02;;;12.40;;
66327;SDS011;53133;52.862;6.602;2022-08-18T05:16:12;24.77;;;12.65;;
66327;SDS011;53133;52.862;6.602;2022-08-18T05:18:38;18.92;;;12.00;;
66327;SDS011;53133;52.862;6.602;2022-08-18T05:21:05;23.17;;;12.25;;
66327;SDS011;53133;52.862;6.602;2022-08-18T05:23:44;21.98;;;12.00;;
66327;SDS011;53133;52.862;6.602;2022-08-18T05:26:11;22.58;;;12.50;;
66327;SDS011;53133;52.862;6.602;2022-08-18T05:28:39;19.95;;;12.18;;
66327;SDS011;53133;52.862;6.602;2022-08-18T05:31:07;19.52;;;11.70;;
66327;SDS011;53133;52.862;6.602;2022-08-18T05:33:33;17.70;;;11.43;;
66327;SDS011;53133;52.862;6.602;2022-08-18T05:36:01;17.33;;;11.85;;
66327;SDS011;53133;52.862;6.602;2022-08-18T05:38:51;17.95;;;11.73;;
66327;SDS011;53133;52.862;6.602;2022-08-18T05:42:23;19.55;;;12.75;;
66327;SDS011;53133;52.862;6.602;2022-08-18T05:44:45;22.38;;;12.15;;
66327;SDS011;53133;52.862;6.602;2022-08-18T05:47:13;19.25;;;12.50;;
66327;SDS011;53133;52.862;6.602;2022-08-18T05:49:52;24.83;;;13.10;;
66327;SDS011;53133;52.862;6.602;2022-08-18T05:54:50;20.17;;;12.48;;
66327;SDS011;53133;52.862;6.602;2022-08-18T05:57:40;24.90;;;12.82;;
66327;SDS011;53133;52.862;6.602;2022-08-18T06:00:09;19.58;;;12.90;;
66327;SDS011;53133;52.862;6.602;2022-08-18T06:05:13;22.83;;;13.63;;
66327;SDS011;53133;52.862;6.602;2022-08-18T06:07:48;20.83;;;13.75;;
66327;SDS011;53133;52.862;6.602;2022-08-18T06:10:24;19.00;;;13.30;;
66327;SDS011;53133;52.862;6.602;2022-08-18T06:12:51;24.50;;;12.75;;
66327;SDS011;53133;52.862;6.602;2022-08-18T06:15:31;26.17;;;13.75;;
66327;SDS011;53133;52.862;6.602;2022-08-18T06:26:29;16.35;;;13.07;;
66327;SDS011;53133;52.862;6.602;2022-08-18T06:37:34;19.25;;;11.75;;
66327;SDS011;53133;52.862;6.602;2022-08-18T06:40:27;16.27;;;11.73;;
66327;SDS011;53133;52.862;6.602;2022-08-18T06:42:55;16.90;;;11.50;;
66327;SDS011;53133;52.862;6.602;2022-08-18T06:45:30;24.30;;;10.73;;
66327;SDS011;53133;52.862;6.602;2022-08-18T06:47:59;17.10;;;10.35;;
66327;SDS011;53133;52.862;6.602;2022-08-18T06:50:29;15.88;;;9.95;;
66327;SDS011;53133;52.862;6.602;2022-08-18T06:53:05;14.35;;;9.80;;
66327;SDS011;53133;52.862;6.602;2022-08-18T06:55:34;15.02;;;9.82;;
66327;SDS011;53133;52.862;6.602;2022-08-18T06:58:24;13.73;;;9.85;;
66327;SDS011;53133;52.862;6.602;2022-08-18T07:00:57;16.77;;;10.70;;
66327;SDS011;53133;52.862;6.602;2022-08-18T07:08:54;12.27;;;10.02;;
66327;SDS011;53133;52.862;6.602;2022-08-18T07:11:40;13.02;;;10.00;;
66327;SDS011;53133;52.862;6.602;2022-08-18T07:14:21;11.63;;;9.60;;
66327;SDS011;53133;52.862;6.602;2022-08-18T07:16:49;13.85;;;9.50;;
66327;SDS011;53133;52.862;6.602;2022-08-18T07:19:29;12.57;;;9.10;;
66327;SDS011;53133;52.862;6.602;2022-08-18T07:22:01;12.15;;;8.73;;
66327;SDS011;53133;52.862;6.602;2022-08-18T07:24:31;11.63;;;9.30;;
66327;SDS011;53133;52.862;6.602;2022-08-18T07:29:40;11.98;;;8.50;;
66327;SDS011;53133;52.862;6.602;2022-08-18T07:32:23;13.05;;;8.73;;
66327;SDS011;53133;52.862;6.602;2022-08-18T07:34:53;11.57;;;8.17;;
66327;SDS011;53133;52.862;6.602;2022-08-18T07:37:30;10.50;;;7.60;;
66327;SDS011;53133;52.862;6.602;2022-08-18T07:40:04;9.50;;;7.20;;
66327;SDS011;53133;52.862;6.602;2022-08-18T07:42:43;9.88;;;7.38;;
66327;SDS011;53133;52.862;6.602;2022-08-18T07:45:17;9.02;;;7.10;;
66327;SDS011;53133;52.862;6.602;2022-08-18T07:50:26;10.80;;;6.95;;
66327;SDS011;53133;52.862;6.602;2022-08-18T07:55:37;8.70;;;6.10;;
66327;SDS011;53133;52.862;6.602;2022-08-18T07:58:18;7.03;;;5.25;;
66327;SDS011;53133;52.862;6.602;2022-08-18T08:01:03;6.75;;;5.20;;
66327;SDS011;53133;52.862;6.602;2022-08-18T08:06:22;9.98;;;5.57;;
66327;SDS011;53133;52.862;6.602;2022-08-18T08:27:18;10.70;;;6.57;;
66327;SDS011;53133;52.862;6.602;2022-08-18T08:29:56;9.38;;;6.35;;
66327;SDS011;53133;52.862;6.602;2022-08-18T08:32:31;9.23;;;5.88;;
66327;SDS011;53133;52.862;6.602;2022-08-18T08:35:16;6.05;;;4.20;;
66327;SDS011;53133;52.862;6.602;2022-08-18T08:37:50;3.80;;;3.08;;
66327;SDS011;53133;52.862;6.602;2022-08-18T08:40:19;4.55;;;3.00;;
66327;SDS011;53133;52.862;6.602;2022-08-18T08:42:56;6.13;;;3.17;;
66327;SDS011;53133;52.862;6.602;2022-08-18T08:48:12;10.02;;;3.60;;
66327;SDS011;53133;52.862;6.602;2022-08-18T08:50:45;6.78;;;4.25;;
66327;SDS011;53133;52.862;6.602;2022-08-18T08:53:25;9.68;;;4.75;;
66327;SDS011;53133;52.862;6.602;2022-08-18T08:55:57;9.27;;;4.22;;
66327;SDS011;53133;52.862;6.602;2022-08-18T08:58:33;13.88;;;4.25;;
66327;SDS011;53133;52.862;6.602;2022-08-18T09:01:09;14.70;;;4.88;;
66327;SDS011;53133;52.862;6.602;2022-08-18T09:03:52;10.18;;;3.92;;
66327;SDS011;53133;52.862;6.602;2022-08-18T09:15:17;12.00;;;5.10;;
66327;SDS011;53133;52.862;6.602;2022-08-18T09:23:33;12.38;;;5.10;;
66327;SDS011;53133;52.862;6.602;2022-08-18T09:31:43;8.35;;;5.50;;
66327;SDS011;53133;52.862;6.602;2022-08-18T09:34:34;13.45;;;5.53;;
66327;SDS011;53133;52.862;6.602;2022-08-18T09:37:04;11.52;;;4.90;;
66327;SDS011;53133;52.862;6.602;2022-08-18T09:43:13;13.15;;;4.72;;
66327;SDS011;53133;52.862;6.602;2022-08-18T09:45:53;10.25;;;4.70;;
66327;SDS011;53133;52.862;6.602;2022-08-18T09:48:33;6.25;;;4.30;;
66327;SDS011;53133;52.862;6.602;2022-08-18T09:54:04;5.15;;;3.47;;
66327;SDS011;53133;52.862;6.602;2022-08-18T10:01:56;5.30;;;2.90;;
66327;SDS011;53133;52.862;6.602;2022-08-18T10:04:40;5.15;;;3.40;;
66327;SDS011;53133;52.862;6.602;2022-08-18T10:07:16;5.25;;;3.10;;
66327;SDS011;53133;52.862;6.602;2022-08-18T10:18:29;4.70;;;3.13;;
66327;SDS011;53133;52.862;6.602;2022-08-18T10:21:17;6.60;;;3.38;;
66327;SDS011;53133;52.862;6.602;2022-08-18T10:36:57;5.10;;;2.72;;
66327;SDS011;53133;52.862;6.602;2022-08-18T10:39:47;5.53;;;2.80;;
66327;SDS011;53133;52.862;6.602;2022-08-18T10:42:33;4.72;;;2.78;;
66327;SDS011;53133;52.862;6.602;2022-08-18T10:50:51;3.25;;;2.30;;
66327;SDS011;53133;52.862;6.602;2022-08-18T10:56:03;7.95;;;2.40;;
66327;SDS011;53133;52.862;6.602;2022-08-18T10:58:44;4.78;;;2.80;;
66327;SDS011;53133;52.862;6.602;2022-08-18T11:04:26;4.40;;;2.22;;
66327;SDS011;53133;52.862;6.602;2022-08-18T11:07:05;4.07;;;2.40;;
66327;SDS011;53133;52.862;6.602;2022-08-18T11:09:36;3.28;;;2.20;;
66327;SDS011;53133;52.862;6.602;2022-08-18T11:12:03;5.82;;;2.33;;
66327;SDS011;53133;52.862;6.602;2022-08-18T11:20:17;4.55;;;2.40;;
66327;SDS011;53133;52.862;6.602;2022-08-18T11:22:50;6.47;;;3.03;;
66327;SDS011;53133;52.862;6.602;2022-08-18T11:25:23;4.53;;;2.22;;
66327;SDS011;53133;52.862;6.602;2022-08-18T11:27:50;4.05;;;2.40;;
66327;SDS011;53133;52.862;6.602;2022-08-18T11:30:17;4.93;;;2.47;;
66327;SDS011;53133;52.862;6.602;2022-08-18T11:32:43;4.93;;;2.30;;
66327;SDS011;53133;52.862;6.602;2022-08-18T11:43:29;2.88;;;2.13;;
66327;SDS011;53133;52.862;6.602;2022-08-18T11:53:34;5.70;;;2.40;;
66327;SDS011;53133;52.862;6.602;2022-08-18T11:58:38;2.42;;;1.63;;
66327;SDS011;53133;52.862;6.602;2022-08-18T12:01:26;5.03;;;2.05;;
66327;SDS011;53133;52.862;6.602;2022-08-18T12:06:38;3.20;;;1.90;;
66327;SDS011;53133;52.862;6.602;2022-08-18T12:11:51;3.70;;;2.15;;
66327;SDS011;53133;52.862;6.602;2022-08-18T12:14:22;5.82;;;2.33;;
66327;SDS011;53133;52.862;6.602;2022-08-18T12:16:49;4.53;;;2.45;;
66327;SDS011;53133;52.862;6.602;2022-08-18T12:19:15;3.47;;;2.10;;
66327;SDS011;53133;52.862;6.602;2022-08-18T12:21:43;6.45;;;2.38;;
66327;SDS011;53133;52.862;6.602;2022-08-18T12:24:19;5.18;;;2.33;;
66327;SDS011;53133;52.862;6.602;2022-08-18T12:26:49;3.53;;;2.30;;
66327;SDS011;53133;52.862;6.602;2022-08-18T12:29:16;3.13;;;1.85;;
66327;SDS011;53133;52.862;6.602;2022-08-18T12:31:44;2.88;;;1.80;;
66327;SDS011;53133;52.862;6.602;2022-08-18T12:34:10;3.58;;;2.13;;
66327;SDS011;53133;52.862;6.602;2022-08-18T12:36:36;3.45;;;2.10;;
66327;SDS011;53133;52.862;6.602;2022-08-18T12:39:03;2.88;;;2.17;;
66327;SDS011;53133;52.862;6.602;2022-08-18T12:41:28;4.10;;;1.92;;
66327;SDS011;53133;52.862;6.602;2022-08-18T12:43:54;2.42;;;2.00;;
66327;SDS011;53133;52.862;6.602;2022-08-18T12:46:19;4.95;;;2.20;;
66327;SDS011;53133;52.862;6.602;2022-08-18T12:48:45;4.88;;;2.20;;
66327;SDS011;53133;52.862;6.602;2022-08-18T12:51:11;2.50;;;2.13;;
66327;SDS011;53133;52.862;6.602;2022-08-18T12:53:38;3.60;;;2.20;;
66327;SDS011;53133;52.862;6.602;2022-08-18T12:56:10;2.58;;;2.13;;
66327;SDS011;53133;52.862;6.602;2022-08-18T12:58:43;3.85;;;2.40;;
66327;SDS011;53133;52.862;6.602;2022-08-18T13:01:09;2.97;;;2.45;;
66327;SDS011;53133;52.862;6.602;2022-08-18T13:03:34;4.13;;;2.50;;
66327;SDS011;53133;52.862;6.602;2022-08-18T13:06:00;4.38;;;2.20;;
66327;SDS011;53133;52.862;6.602;2022-08-18T13:08:26;2.53;;;2.30;;
66327;SDS011;53133;52.862;6.602;2022-08-18T13:10:52;3.75;;;2.25;;
66327;SDS011;53133;52.862;6.602;2022-08-18T13:13:18;3.67;;;2.10;;
66327;SDS011;53133;52.862;6.602;2022-08-18T13:15:44;3.95;;;2.40;;
66327;SDS011;53133;52.862;6.602;2022-08-18T13:18:11;3.90;;;2.33;;
66327;SDS011;53133;52.862;6.602;2022-08-18T13:20:38;3.15;;;2.35;;
66327;SDS011;53133;52.862;6.602;2022-08-18T13:23:05;5.82;;;2.22;;
66327;SDS011;53133;52.862;6.602;2022-08-18T13:25:30;6.45;;;2.70;;
66327;SDS011;53133;52.862;6.602;2022-08-18T13:27:56;3.92;;;2.40;;
66327;SDS011;53133;52.862;6.602;2022-08-18T13:30:22;4.45;;;2.60;;
66327;SDS011;53133;52.862;6.602;2022-08-18T13:32:48;3.80;;;2.55;;
66327;SDS011;53133;52.862;6.602;2022-08-18T13:35:15;3.92;;;2.60;;
66327;SDS011;53133;52.862;6.602;2022-08-18T13:37:40;5.20;;;2.70;;
66327;SDS011;53133;52.862;6.602;2022-08-18T13:40:07;7.13;;;2.83;;
66327;SDS011;53133;52.862;6.602;2022-08-18T13:42:40;4.85;;;2.67;;
66327;SDS011;53133;52.862;6.602;2022-08-18T13:45:09;5.18;;;3.00;;
66327;SDS011;53133;52.862;6.602;2022-08-18T13:47:38;3.30;;;3.00;;
66327;SDS011;53133;52.862;6.602;2022-08-18T13:50:04;2.95;;;2.63;;
66327;SDS011;53133;52.862;6.602;2022-08-18T13:52:30;5.20;;;2.72;;
66327;SDS011;53133;52.862;6.602;2022-08-18T13:54:56;5.10;;;2.78;;
66327;SDS011;53133;52.862;6.602;2022-08-18T13:57:21;5.05;;;2.45;;
66327;SDS011;53133;52.862;6.602;2022-08-18T13:59:47;4.90;;;2.70;;
66327;SDS011;53133;52.862;6.602;2022-08-18T14:02:13;5.53;;;2.90;;
66327;SDS011;53133;52.862;6.602;2022-08-18T14:04:38;3.00;;;2.70;;
66327;SDS011;53133;52.862;6.602;2022-08-18T14:07:06;2.97;;;2.50;;
66327;SDS011;53133;52.862;6.602;2022-08-18T14:09:33;5.05;;;2.83;;
66327;SDS011;53133;52.862;6.602;2022-08-18T14:12:00;4.35;;;2.72;;
66327;SDS011;53133;52.862;6.602;2022-08-18T14:14:27;4.38;;;2.40;;
66327;SDS011;53133;52.862;6.602;2022-08-18T14:16:53;3.75;;;2.42;;
66327;SDS011;53133;52.862;6.602;2022-08-18T14:19:18;4.10;;;2.47;;
66327;SDS011;53133;52.862;6.602;2022-08-18T14:22:02;5.20;;;2.92;;
66327;SDS011;53133;52.862;6.602;2022-08-18T14:24:47;3.22;;;2.65;;
66327;SDS011;53133;52.862;6.602;2022-08-18T14:27:32;4.32;;;2.65;;
66327;SDS011;53133;52.862;6.602;2022-08-18T14:30:04;3.60;;;2.33;;
66327;SDS011;53133;52.862;6.602;2022-08-18T14:32:31;3.33;;;2.58;;
66327;SDS011;53133;52.862;6.602;2022-08-18T14:34:57;3.25;;;2.70;;
66327;SDS011;53133;52.862;6.602;2022-08-18T14:37:25;6.13;;;2.70;;
66327;SDS011;53133;52.862;6.602;2022-08-18T14:39:51;4.15;;;2.40;;
66327;SDS011;53133;52.862;6.602;2022-08-18T14:42:17;3.40;;;2.40;;
66327;SDS011;53133;52.862;6.602;2022-08-18T14:44:45;4.32;;;2.40;;
66327;SDS011;53133;52.862;6.602;2022-08-18T14:47:12;6.65;;;3.10;;
66327;SDS011;53133;52.862;6.602;2022-08-18T14:49:37;3.33;;;2.53;;
66327;SDS011;53133;52.862;6.602;2022-08-18T14:52:04;4.57;;;2.60;;
66327;SDS011;53133;52.862;6.602;2022-08-18T14:54:30;4.78;;;2.78;;
66327;SDS011;53133;52.862;6.602;2022-08-18T14:56:57;4.45;;;2.80;;
66327;SDS011;53133;52.862;6.602;2022-08-18T14:59:25;3.85;;;2.95;;
66327;SDS011;53133;52.862;6.602;2022-08-18T15:01:53;4.32;;;2.67;;
66327;SDS011;53133;52.862;6.602;2022-08-18T15:04:19;3.85;;;2.80;;
66327;SDS011;53133;52.862;6.602;2022-08-18T15:06:46;3.08;;;2.53;;
66327;SDS011;53133;52.862;6.602;2022-08-18T15:09:13;4.15;;;2.80;;
66327;SDS011;53133;52.862;6.602;2022-08-18T15:11:38;3.25;;;2.70;;
66327;SDS011;53133;52.862;6.602;2022-08-18T15:14:04;3.42;;;2.35;;
66327;SDS011;53133;52.862;6.602;2022-08-18T15:16:30;3.97;;;2.30;;
66327;SDS011;53133;52.862;6.602;2022-08-18T15:18:58;3.58;;;2.33;;
66327;SDS011;53133;52.862;6.602;2022-08-18T15:21:25;2.60;;;2.40;;
66327;SDS011;53133;52.862;6.602;2022-08-18T15:24:10;4.47;;;3.05;;
66327;SDS011;53133;52.862;6.602;2022-08-18T15:26:55;3.78;;;2.50;;
66327;SDS011;53133;52.862;6.602;2022-08-18T15:29:22;4.75;;;2.80;;
66327;SDS011;53133;52.862;6.602;2022-08-18T15:31:48;3.95;;;2.42;;
66327;SDS011;53133;52.862;6.602;2022-08-18T15:34:15;4.18;;;2.42;;
66327;SDS011;53133;52.862;6.602;2022-08-18T15:36:42;3.95;;;2.50;;
66327;SDS011;53133;52.862;6.602;2022-08-18T15:39:08;3.42;;;2.85;;
66327;SDS011;53133;52.862;6.602;2022-08-18T15:41:37;5.72;;;2.47;;
66327;SDS011;53133;52.862;6.602;2022-08-18T15:44:05;3.65;;;2.70;;
66327;SDS011;53133;52.862;6.602;2022-08-18T15:46:34;5.53;;;3.10;;
66327;SDS011;53133;52.862;6.602;2022-08-18T15:49:02;3.80;;;2.42;;
66327;SDS011;53133;52.862;6.602;2022-08-18T15:51:36;5.23;;;2.90;;
66327;SDS011;53133;52.862;6.602;2022-08-18T15:54:03;4.03;;;2.70;;
66327;SDS011;53133;52.862;6.602;2022-08-18T15:56:30;4.85;;;2.85;;
66327;SDS011;53133;52.862;6.602;2022-08-18T15:58:56;4.53;;;2.50;;
66327;SDS011;53133;52.862;6.602;2022-08-18T16:01:23;3.05;;;2.50;;
66327;SDS011;53133;52.862;6.602;2022-08-18T16:03:50;4.82;;;2.70;;
66327;SDS011;53133;52.862;6.602;2022-08-18T16:06:20;3.92;;;2.83;;
66327;SDS011;53133;52.862;6.602;2022-08-18T16:08:48;3.95;;;2.47;;
66327;SDS011;53133;52.862;6.602;2022-08-18T16:11:15;4.32;;;2.80;;
66327;SDS011;53133;52.862;6.602;2022-08-18T16:13:43;3.97;;;2.75;;
66327;SDS011;53133;52.862;6.602;2022-08-18T16:16:17;3.75;;;2.65;;
66327;SDS011;53133;52.862;6.602;2022-08-18T16:18:44;3.38;;;2.65;;
66327;SDS011;53133;52.862;6.602;2022-08-18T16:21:11;4.50;;;2.38;;
66327;SDS011;53133;52.862;6.602;2022-08-18T16:23:42;5.05;;;2.95;;
66327;SDS011;53133;52.862;6.602;2022-08-18T16:26:11;3.95;;;2.80;;
66327;SDS011;53133;52.862;6.602;2022-08-18T16:28:39;4.68;;;3.10;;
66327;SDS011;53133;52.862;6.602;2022-08-18T16:31:06;4.03;;;2.67;;
66327;SDS011;53133;52.862;6.602;2022-08-18T16:33:32;5.32;;;2.70;;
66327;SDS011;53133;52.862;6.602;2022-08-18T16:36:03;3.10;;;2.50;;
66327;SDS011;53133;52.862;6.602;2022-08-18T16:38:30;3.00;;;2.72;;
66327;SDS011;53133;52.862;6.602;2022-08-18T16:41:02;3.20;;;2.80;;
66327;SDS011;53133;52.862;6.602;2022-08-18T16:43:30;5.53;;;2.90;;
66327;SDS011;53133;52.862;6.602;2022-08-18T16:45:56;4.43;;;2.75;;
66327;SDS011;53133;52.862;6.602;2022-08-18T16:48:22;3.90;;;2.83;;
66327;SDS011;53133;52.862;6.602;2022-08-18T16:50:48;4.05;;;2.63;;
66327;SDS011;53133;52.862;6.602;2022-08-18T16:53:15;3.97;;;3.10;;
66327;SDS011;53133;52.862;6.602;2022-08-18T16:55:42;3.05;;;2.70;;
66327;SDS011;53133;52.862;6.602;2022-08-18T16:58:08;3.88;;;2.90;;
66327;SDS011;53133;52.862;6.602;2022-08-18T17:01:09;4.32;;;2.80;;
66327;SDS011;53133;52.862;6.602;2022-08-18T17:03:53;4.63;;;2.83;;
66327;SDS011;53133;52.862;6.602;2022-08-18T17:06:31;3.72;;;2.92;;
66327;SDS011;53133;52.862;6.602;2022-08-18T17:08:59;4.47;;;2.90;;
66327;SDS011;53133;52.862;6.602;2022-08-18T17:11:26;3.53;;;2.80;;
66327;SDS011;53133;52.862;6.602;2022-08-18T17:13:52;4.03;;;2.88;;
66327;SDS011;53133;52.862;6.602;2022-08-18T17:16:19;3.22;;;2.67;;
66327;SDS011;53133;52.862;6.602;2022-08-18T17:18:46;3.45;;;2.72;;
66327;SDS011;53133;52.862;6.602;2022-08-18T17:21:13;4.22;;;2.80;;
66327;SDS011;53133;52.862;6.602;2022-08-18T17:23:42;3.55;;;2.72;;
66327;SDS011;53133;52.862;6.602;2022-08-18T17:29:11;4.85;;;2.60;;
66327;SDS011;53133;52.862;6.602;2022-08-18T17:31:50;3.78;;;3.13;;
66327;SDS011;53133;52.862;6.602;2022-08-18T17:34:22;4.28;;;2.72;;
66327;SDS011;53133;52.862;6.602;2022-08-18T17:36:55;3.65;;;2.70;;